sensor_id;sensor_type;location;lat;lon;timestamp;P1;durP1;ratioP1;P2;durP2;ratioP2
57651;SDS011;43480;53.116;6.734;2024-01-11T00:01:58;52.45;;;26.38;;
57651;SDS011;43480;53.116;6.734;2024-01-11T00:04:24;49.25;;;25.35;;
57651;SDS011;43480;53.116;6.734;2024-01-11T00:06:50;49.92;;;24.75;;
57651;SDS011;43480;53.116;6.734;2024-01-11T00:09:16;53.20;;;27.35;;
57651;SDS011;43480;53.116;6.734;2024-01-11T00:11:41;54.53;;;26.60;;
57651;SDS011;43480;53.116;6.734;2024-01-11T00:14:07;56.03;;;27.73;;
57651;SDS011;43480;53.116;6.734;2024-01-11T00:16:33;53.05;;;25.58;;
57651;SDS011;43480;53.116;6.734;2024-01-11T00:18:59;56.20;;;26.48;;
57651;SDS011;43480;53.116;6.734;2024-01-11T00:21:25;56.30;;;26.73;;
57651;SDS011;43480;53.116;6.734;2024-01-11T00:23:51;53.35;;;27.00;;
57651;SDS011;43480;53.116;6.734;2024-01-11T00:26:16;54.30;;;27.35;;
57651;SDS011;43480;53.116;6.734;2024-01-11T00:28:42;56.72;;;29.85;;
57651;SDS011;43480;53.116;6.734;2024-01-11T00:31:08;51.97;;;27.50;;
57651;SDS011;43480;53.116;6.734;2024-01-11T00:33:33;53.70;;;27.45;;
57651;SDS011;43480;53.116;6.734;2024-01-11T00:35:59;58.92;;;28.50;;
57651;SDS011;43480;53.116;6.734;2024-01-11T00:38:24;52.47;;;25.98;;
57651;SDS011;43480;53.116;6.734;2024-01-11T00:40:50;58.63;;;29.25;;
57651;SDS011;43480;53.116;6.734;2024-01-11T00:43:16;57.10;;;29.35;;
57651;SDS011;43480;53.116;6.734;2024-01-11T00:45:41;61.60;;;27.83;;
57651;SDS011;43480;53.116;6.734;2024-01-11T00:48:07;58.13;;;28.10;;
57651;SDS011;43480;53.116;6.734;2024-01-11T00:50:32;54.58;;;27.52;;
57651;SDS011;43480;53.116;6.734;2024-01-11T00:52:58;58.70;;;29.13;;
57651;SDS011;43480;53.116;6.734;2024-01-11T00:55:24;57.03;;;26.60;;
57651;SDS011;43480;53.116;6.734;2024-01-11T00:57:49;56.97;;;27.58;;
57651;SDS011;43480;53.116;6.734;2024-01-11T01:00:15;57.65;;;27.85;;
57651;SDS011;43480;53.116;6.734;2024-01-11T01:02:41;55.47;;;28.20;;
57651;SDS011;43480;53.116;6.734;2024-01-11T01:05:08;55.75;;;26.52;;
57651;SDS011;43480;53.116;6.734;2024-01-11T01:07:33;57.92;;;27.92;;
57651;SDS011;43480;53.116;6.734;2024-01-11T01:09:59;56.47;;;28.50;;
57651;SDS011;43480;53.116;6.734;2024-01-11T01:12:25;52.97;;;27.90;;
57651;SDS011;43480;53.116;6.734;2024-01-11T01:14:51;60.13;;;29.83;;
57651;SDS011;43480;53.116;6.734;2024-01-11T01:17:16;53.67;;;26.67;;
57651;SDS011;43480;53.116;6.734;2024-01-11T01:19:43;50.38;;;25.65;;
57651;SDS011;43480;53.116;6.734;2024-01-11T01:22:09;51.03;;;27.02;;
57651;SDS011;43480;53.116;6.734;2024-01-11T01:24:34;52.13;;;25.17;;
57651;SDS011;43480;53.116;6.734;2024-01-11T01:27:00;51.95;;;26.33;;
57651;SDS011;43480;53.116;6.734;2024-01-11T01:29:26;53.42;;;25.50;;
57651;SDS011;43480;53.116;6.734;2024-01-11T01:31:52;51.88;;;27.00;;
57651;SDS011;43480;53.116;6.734;2024-01-11T01:34:18;57.63;;;26.50;;
57651;SDS011;43480;53.116;6.734;2024-01-11T01:36:44;52.75;;;28.10;;
57651;SDS011;43480;53.116;6.734;2024-01-11T01:39:09;49.58;;;25.38;;
57651;SDS011;43480;53.116;6.734;2024-01-11T01:41:35;59.95;;;27.70;;
57651;SDS011;43480;53.116;6.734;2024-01-11T01:44:01;53.65;;;27.52;;
57651;SDS011;43480;53.116;6.734;2024-01-11T01:46:26;54.22;;;29.23;;
57651;SDS011;43480;53.116;6.734;2024-01-11T01:48:53;58.92;;;29.65;;
57651;SDS011;43480;53.116;6.734;2024-01-11T01:51:20;57.75;;;27.67;;
57651;SDS011;43480;53.116;6.734;2024-01-11T01:53:47;56.67;;;28.20;;
57651;SDS011;43480;53.116;6.734;2024-01-11T01:56:17;59.28;;;27.65;;
57651;SDS011;43480;53.116;6.734;2024-01-11T01:58:44;53.40;;;28.70;;
57651;SDS011;43480;53.116;6.734;2024-01-11T02:01:10;56.83;;;27.83;;
57651;SDS011;43480;53.116;6.734;2024-01-11T02:03:37;53.65;;;27.50;;
57651;SDS011;43480;53.116;6.734;2024-01-11T02:06:03;54.78;;;29.00;;
57651;SDS011;43480;53.116;6.734;2024-01-11T02:08:30;51.53;;;26.85;;
57651;SDS011;43480;53.116;6.734;2024-01-11T02:10:58;52.70;;;26.73;;
57651;SDS011;43480;53.116;6.734;2024-01-11T02:13:25;54.40;;;27.00;;
57651;SDS011;43480;53.116;6.734;2024-01-11T02:15:51;51.80;;;26.65;;
57651;SDS011;43480;53.116;6.734;2024-01-11T02:18:17;50.08;;;25.27;;
57651;SDS011;43480;53.116;6.734;2024-01-11T02:20:43;48.88;;;25.13;;
57651;SDS011;43480;53.116;6.734;2024-01-11T02:23:11;48.65;;;24.73;;
57651;SDS011;43480;53.116;6.734;2024-01-11T02:25:39;58.03;;;26.42;;
57651;SDS011;43480;53.116;6.734;2024-01-11T02:28:05;56.67;;;27.80;;
57651;SDS011;43480;53.116;6.734;2024-01-11T02:30:33;51.40;;;26.90;;
57651;SDS011;43480;53.116;6.734;2024-01-11T02:32:59;59.13;;;30.35;;
57651;SDS011;43480;53.116;6.734;2024-01-11T02:35:26;52.15;;;28.20;;
57651;SDS011;43480;53.116;6.734;2024-01-11T02:37:53;57.28;;;27.50;;
57651;SDS011;43480;53.116;6.734;2024-01-11T02:40:19;53.92;;;27.08;;
57651;SDS011;43480;53.116;6.734;2024-01-11T02:42:45;57.50;;;28.70;;
57651;SDS011;43480;53.116;6.734;2024-01-11T02:45:11;59.75;;;29.63;;
57651;SDS011;43480;53.116;6.734;2024-01-11T02:47:37;59.90;;;28.27;;
57651;SDS011;43480;53.116;6.734;2024-01-11T02:50:04;59.60;;;29.65;;
57651;SDS011;43480;53.116;6.734;2024-01-11T02:52:32;54.63;;;29.52;;
57651;SDS011;43480;53.116;6.734;2024-01-11T02:54:58;56.10;;;30.90;;
57651;SDS011;43480;53.116;6.734;2024-01-11T02:57:23;57.53;;;27.17;;
57651;SDS011;43480;53.116;6.734;2024-01-11T02:59:49;55.17;;;27.15;;
57651;SDS011;43480;53.116;6.734;2024-01-11T03:02:16;60.25;;;29.27;;
57651;SDS011;43480;53.116;6.734;2024-01-11T03:04:41;54.28;;;26.60;;
57651;SDS011;43480;53.116;6.734;2024-01-11T03:07:07;60.17;;;29.30;;
57651;SDS011;43480;53.116;6.734;2024-01-11T03:09:33;57.50;;;28.55;;
57651;SDS011;43480;53.116;6.734;2024-01-11T03:11:59;56.08;;;28.13;;
57651;SDS011;43480;53.116;6.734;2024-01-11T03:14:25;61.17;;;30.63;;
57651;SDS011;43480;53.116;6.734;2024-01-11T03:16:51;58.03;;;28.17;;
57651;SDS011;43480;53.116;6.734;2024-01-11T03:19:16;58.15;;;30.55;;
57651;SDS011;43480;53.116;6.734;2024-01-11T03:21:43;55.60;;;27.90;;
57651;SDS011;43480;53.116;6.734;2024-01-11T03:24:09;60.17;;;29.92;;
57651;SDS011;43480;53.116;6.734;2024-01-11T03:26:34;62.67;;;30.27;;
57651;SDS011;43480;53.116;6.734;2024-01-11T03:29:00;67.53;;;31.92;;
57651;SDS011;43480;53.116;6.734;2024-01-11T03:31:26;59.90;;;28.00;;
57651;SDS011;43480;53.116;6.734;2024-01-11T03:33:52;57.22;;;28.88;;
57651;SDS011;43480;53.116;6.734;2024-01-11T03:36:17;61.00;;;28.58;;
57651;SDS011;43480;53.116;6.734;2024-01-11T03:38:43;60.45;;;29.25;;
57651;SDS011;43480;53.116;6.734;2024-01-11T03:41:09;57.20;;;29.95;;
57651;SDS011;43480;53.116;6.734;2024-01-11T03:43:35;56.67;;;28.25;;
57651;SDS011;43480;53.116;6.734;2024-01-11T03:46:01;66.40;;;31.00;;
57651;SDS011;43480;53.116;6.734;2024-01-11T03:48:27;67.65;;;31.00;;
57651;SDS011;43480;53.116;6.734;2024-01-11T03:50:53;71.63;;;32.92;;
57651;SDS011;43480;53.116;6.734;2024-01-11T03:53:18;58.13;;;28.13;;
57651;SDS011;43480;53.116;6.734;2024-01-11T03:55:44;64.30;;;31.05;;
57651;SDS011;43480;53.116;6.734;2024-01-11T03:58:10;68.53;;;29.15;;
57651;SDS011;43480;53.116;6.734;2024-01-11T04:00:35;66.78;;;28.80;;
57651;SDS011;43480;53.116;6.734;2024-01-11T04:03:01;59.90;;;30.35;;
57651;SDS011;43480;53.116;6.734;2024-01-11T04:05:27;71.50;;;32.30;;
57651;SDS011;43480;53.116;6.734;2024-01-11T04:07:53;60.58;;;28.83;;
57651;SDS011;43480;53.116;6.734;2024-01-11T04:10:18;71.50;;;31.33;;
57651;SDS011;43480;53.116;6.734;2024-01-11T04:12:44;64.50;;;31.30;;
57651;SDS011;43480;53.116;6.734;2024-01-11T04:15:13;67.00;;;31.85;;
57651;SDS011;43480;53.116;6.734;2024-01-11T04:17:39;64.18;;;31.45;;
57651;SDS011;43480;53.116;6.734;2024-01-11T04:20:05;67.97;;;31.85;;
57651;SDS011;43480;53.116;6.734;2024-01-11T04:22:31;68.90;;;30.27;;
57651;SDS011;43480;53.116;6.734;2024-01-11T04:24:57;66.60;;;32.63;;
57651;SDS011;43480;53.116;6.734;2024-01-11T04:27:23;62.35;;;30.75;;
57651;SDS011;43480;53.116;6.734;2024-01-11T04:29:49;60.42;;;28.75;;
57651;SDS011;43480;53.116;6.734;2024-01-11T04:32:14;64.38;;;31.73;;
57651;SDS011;43480;53.116;6.734;2024-01-11T04:34:40;69.95;;;32.30;;
57651;SDS011;43480;53.116;6.734;2024-01-11T04:37:06;69.63;;;30.48;;
57651;SDS011;43480;53.116;6.734;2024-01-11T04:39:32;66.10;;;32.28;;
57651;SDS011;43480;53.116;6.734;2024-01-11T04:41:58;66.55;;;30.65;;
57651;SDS011;43480;53.116;6.734;2024-01-11T04:44:25;66.47;;;31.20;;
57651;SDS011;43480;53.116;6.734;2024-01-11T04:46:51;76.10;;;35.38;;
57651;SDS011;43480;53.116;6.734;2024-01-11T04:49:16;68.03;;;32.78;;
57651;SDS011;43480;53.116;6.734;2024-01-11T04:51:42;71.97;;;33.90;;
57651;SDS011;43480;53.116;6.734;2024-01-11T04:54:08;71.68;;;34.38;;
57651;SDS011;43480;53.116;6.734;2024-01-11T04:56:33;59.78;;;31.13;;
57651;SDS011;43480;53.116;6.734;2024-01-11T04:58:59;60.00;;;30.65;;
57651;SDS011;43480;53.116;6.734;2024-01-11T05:01:25;72.97;;;32.78;;
57651;SDS011;43480;53.116;6.734;2024-01-11T05:03:50;70.35;;;30.05;;
57651;SDS011;43480;53.116;6.734;2024-01-11T05:06:16;61.28;;;31.75;;
57651;SDS011;43480;53.116;6.734;2024-01-11T05:08:47;66.40;;;32.05;;
57651;SDS011;43480;53.116;6.734;2024-01-11T05:11:18;64.45;;;33.30;;
57651;SDS011;43480;53.116;6.734;2024-01-11T05:13:44;67.45;;;31.75;;
57651;SDS011;43480;53.116;6.734;2024-01-11T05:16:19;59.92;;;30.52;;
57651;SDS011;43480;53.116;6.734;2024-01-11T05:18:49;64.88;;;31.38;;
57651;SDS011;43480;53.116;6.734;2024-01-11T05:21:16;60.90;;;30.73;;
57651;SDS011;43480;53.116;6.734;2024-01-11T05:23:42;63.22;;;32.13;;
57651;SDS011;43480;53.116;6.734;2024-01-11T05:26:11;60.42;;;29.33;;
57651;SDS011;43480;53.116;6.734;2024-01-11T05:28:37;62.95;;;30.35;;
57651;SDS011;43480;53.116;6.734;2024-01-11T05:31:10;71.28;;;32.20;;
57651;SDS011;43480;53.116;6.734;2024-01-11T05:33:37;65.05;;;31.83;;
57651;SDS011;43480;53.116;6.734;2024-01-11T05:36:06;63.55;;;31.52;;
57651;SDS011;43480;53.116;6.734;2024-01-11T05:38:32;62.28;;;31.08;;
57651;SDS011;43480;53.116;6.734;2024-01-11T05:40:58;64.13;;;30.05;;
57651;SDS011;43480;53.116;6.734;2024-01-11T05:43:23;63.60;;;31.55;;
57651;SDS011;43480;53.116;6.734;2024-01-11T05:45:50;61.63;;;30.73;;
57651;SDS011;43480;53.116;6.734;2024-01-11T05:48:16;61.95;;;30.75;;
57651;SDS011;43480;53.116;6.734;2024-01-11T05:50:42;56.67;;;31.17;;
57651;SDS011;43480;53.116;6.734;2024-01-11T05:53:08;63.35;;;31.63;;
57651;SDS011;43480;53.116;6.734;2024-01-11T05:55:35;66.85;;;33.10;;
57651;SDS011;43480;53.116;6.734;2024-01-11T05:58:00;62.80;;;32.50;;
57651;SDS011;43480;53.116;6.734;2024-01-11T06:00:26;59.88;;;30.70;;
57651;SDS011;43480;53.116;6.734;2024-01-11T06:02:52;63.35;;;32.42;;
57651;SDS011;43480;53.116;6.734;2024-01-11T06:05:17;61.10;;;32.78;;
57651;SDS011;43480;53.116;6.734;2024-01-11T06:07:43;63.70;;;32.45;;
57651;SDS011;43480;53.116;6.734;2024-01-11T06:10:09;60.55;;;31.55;;
57651;SDS011;43480;53.116;6.734;2024-01-11T06:12:35;67.50;;;32.15;;
57651;SDS011;43480;53.116;6.734;2024-01-11T06:15:01;58.55;;;30.60;;
57651;SDS011;43480;53.116;6.734;2024-01-11T06:17:27;64.40;;;32.50;;
57651;SDS011;43480;53.116;6.734;2024-01-11T06:19:53;59.15;;;31.27;;
57651;SDS011;43480;53.116;6.734;2024-01-11T06:22:19;62.58;;;31.00;;
57651;SDS011;43480;53.116;6.734;2024-01-11T06:24:45;55.65;;;28.88;;
57651;SDS011;43480;53.116;6.734;2024-01-11T06:27:11;62.30;;;33.45;;
57651;SDS011;43480;53.116;6.734;2024-01-11T06:29:37;60.03;;;31.73;;
57651;SDS011;43480;53.116;6.734;2024-01-11T06:32:03;61.45;;;31.75;;
57651;SDS011;43480;53.116;6.734;2024-01-11T06:34:28;61.22;;;33.45;;
57651;SDS011;43480;53.116;6.734;2024-01-11T06:36:55;66.82;;;32.85;;
57651;SDS011;43480;53.116;6.734;2024-01-11T06:39:21;60.15;;;32.00;;
57651;SDS011;43480;53.116;6.734;2024-01-11T06:41:46;60.63;;;29.33;;
57651;SDS011;43480;53.116;6.734;2024-01-11T06:44:12;63.45;;;32.08;;
57651;SDS011;43480;53.116;6.734;2024-01-11T06:46:38;63.80;;;31.58;;
57651;SDS011;43480;53.116;6.734;2024-01-11T06:49:07;66.97;;;30.85;;
57651;SDS011;43480;53.116;6.734;2024-01-11T06:51:33;60.80;;;31.00;;
57651;SDS011;43480;53.116;6.734;2024-01-11T06:53:59;55.88;;;30.70;;
57651;SDS011;43480;53.116;6.734;2024-01-11T06:56:26;60.17;;;32.45;;
57651;SDS011;43480;53.116;6.734;2024-01-11T06:58:52;63.78;;;32.17;;
57651;SDS011;43480;53.116;6.734;2024-01-11T07:01:19;58.40;;;29.40;;
57651;SDS011;43480;53.116;6.734;2024-01-11T07:03:45;57.92;;;30.55;;
57651;SDS011;43480;53.116;6.734;2024-01-11T07:06:11;56.92;;;30.02;;
57651;SDS011;43480;53.116;6.734;2024-01-11T07:08:37;54.10;;;28.27;;
57651;SDS011;43480;53.116;6.734;2024-01-11T07:11:03;58.45;;;29.80;;
57651;SDS011;43480;53.116;6.734;2024-01-11T07:13:29;57.85;;;29.48;;
57651;SDS011;43480;53.116;6.734;2024-01-11T07:15:56;59.63;;;28.58;;
57651;SDS011;43480;53.116;6.734;2024-01-11T07:18:23;58.72;;;29.83;;
57651;SDS011;43480;53.116;6.734;2024-01-11T07:20:50;53.17;;;25.92;;
57651;SDS011;43480;53.116;6.734;2024-01-11T07:23:16;58.00;;;28.67;;
57651;SDS011;43480;53.116;6.734;2024-01-11T07:25:42;60.70;;;30.88;;
57651;SDS011;43480;53.116;6.734;2024-01-11T07:28:08;57.33;;;29.83;;
57651;SDS011;43480;53.116;6.734;2024-01-11T07:30:34;52.30;;;28.35;;
57651;SDS011;43480;53.116;6.734;2024-01-11T07:32:59;55.42;;;30.17;;
57651;SDS011;43480;53.116;6.734;2024-01-11T07:35:25;56.35;;;29.92;;
57651;SDS011;43480;53.116;6.734;2024-01-11T07:37:51;52.38;;;27.40;;
57651;SDS011;43480;53.116;6.734;2024-01-11T07:40:17;55.45;;;27.95;;
57651;SDS011;43480;53.116;6.734;2024-01-11T07:42:43;53.55;;;27.27;;
57651;SDS011;43480;53.116;6.734;2024-01-11T07:45:09;57.85;;;29.88;;
57651;SDS011;43480;53.116;6.734;2024-01-11T07:47:39;60.75;;;30.15;;
57651;SDS011;43480;53.116;6.734;2024-01-11T07:50:05;58.65;;;30.35;;
57651;SDS011;43480;53.116;6.734;2024-01-11T07:52:37;59.00;;;30.48;;
57651;SDS011;43480;53.116;6.734;2024-01-11T07:55:06;57.58;;;29.98;;
57651;SDS011;43480;53.116;6.734;2024-01-11T07:57:36;54.42;;;28.38;;
57651;SDS011;43480;53.116;6.734;2024-01-11T08:00:05;55.80;;;31.67;;
57651;SDS011;43480;53.116;6.734;2024-01-11T08:02:32;57.38;;;29.85;;
57651;SDS011;43480;53.116;6.734;2024-01-11T08:04:58;55.10;;;32.15;;
57651;SDS011;43480;53.116;6.734;2024-01-11T08:07:27;59.95;;;30.17;;
57651;SDS011;43480;53.116;6.734;2024-01-11T08:09:53;56.47;;;28.98;;
57651;SDS011;43480;53.116;6.734;2024-01-11T08:12:19;52.47;;;28.85;;
57651;SDS011;43480;53.116;6.734;2024-01-11T08:14:45;51.05;;;30.17;;
57651;SDS011;43480;53.116;6.734;2024-01-11T08:17:12;57.72;;;28.80;;
57651;SDS011;43480;53.116;6.734;2024-01-11T08:19:39;60.72;;;31.02;;
57651;SDS011;43480;53.116;6.734;2024-01-11T08:22:05;58.15;;;29.13;;
57651;SDS011;43480;53.116;6.734;2024-01-11T08:24:31;62.08;;;30.77;;
57651;SDS011;43480;53.116;6.734;2024-01-11T08:26:57;55.78;;;29.58;;
57651;SDS011;43480;53.116;6.734;2024-01-11T08:29:23;52.83;;;28.00;;
57651;SDS011;43480;53.116;6.734;2024-01-11T08:31:49;53.05;;;26.30;;
57651;SDS011;43480;53.116;6.734;2024-01-11T08:34:15;53.03;;;29.40;;
57651;SDS011;43480;53.116;6.734;2024-01-11T08:36:40;54.03;;;29.92;;
57651;SDS011;43480;53.116;6.734;2024-01-11T08:39:06;52.88;;;28.42;;
57651;SDS011;43480;53.116;6.734;2024-01-11T08:41:32;59.53;;;30.60;;
57651;SDS011;43480;53.116;6.734;2024-01-11T08:43:59;51.20;;;28.63;;
57651;SDS011;43480;53.116;6.734;2024-01-11T08:46:25;48.15;;;26.00;;
57651;SDS011;43480;53.116;6.734;2024-01-11T08:48:54;52.30;;;26.60;;
57651;SDS011;43480;53.116;6.734;2024-01-11T08:51:21;46.28;;;25.25;;
57651;SDS011;43480;53.116;6.734;2024-01-11T08:53:47;47.55;;;27.60;;
57651;SDS011;43480;53.116;6.734;2024-01-11T08:56:13;52.92;;;27.88;;
57651;SDS011;43480;53.116;6.734;2024-01-11T08:58:41;44.45;;;25.05;;
57651;SDS011;43480;53.116;6.734;2024-01-11T09:01:08;45.65;;;25.20;;
57651;SDS011;43480;53.116;6.734;2024-01-11T09:03:34;53.00;;;27.30;;
57651;SDS011;43480;53.116;6.734;2024-01-11T09:06:00;47.60;;;26.63;;
57651;SDS011;43480;53.116;6.734;2024-01-11T09:08:27;46.03;;;25.90;;
57651;SDS011;43480;53.116;6.734;2024-01-11T09:10:53;48.30;;;25.90;;
57651;SDS011;43480;53.116;6.734;2024-01-11T09:13:19;46.67;;;25.70;;
57651;SDS011;43480;53.116;6.734;2024-01-11T09:15:44;46.15;;;23.27;;
57651;SDS011;43480;53.116;6.734;2024-01-11T09:18:10;44.75;;;23.85;;
57651;SDS011;43480;53.116;6.734;2024-01-11T09:20:36;45.75;;;24.98;;
57651;SDS011;43480;53.116;6.734;2024-01-11T09:23:02;44.65;;;26.08;;
57651;SDS011;43480;53.116;6.734;2024-01-11T09:25:29;53.78;;;26.10;;
57651;SDS011;43480;53.116;6.734;2024-01-11T09:27:57;47.55;;;28.00;;
57651;SDS011;43480;53.116;6.734;2024-01-11T09:30:23;47.90;;;25.77;;
57651;SDS011;43480;53.116;6.734;2024-01-11T09:32:49;44.28;;;24.70;;
57651;SDS011;43480;53.116;6.734;2024-01-11T09:35:15;45.17;;;26.10;;
57651;SDS011;43480;53.116;6.734;2024-01-11T09:37:40;42.97;;;24.40;;
57651;SDS011;43480;53.116;6.734;2024-01-11T09:40:07;43.90;;;25.85;;
57651;SDS011;43480;53.116;6.734;2024-01-11T09:42:38;44.45;;;24.02;;
57651;SDS011;43480;53.116;6.734;2024-01-11T09:45:08;47.97;;;24.48;;
57651;SDS011;43480;53.116;6.734;2024-01-11T09:47:37;46.17;;;25.30;;
57651;SDS011;43480;53.116;6.734;2024-01-11T09:50:04;45.70;;;26.63;;
57651;SDS011;43480;53.116;6.734;2024-01-11T09:52:31;46.15;;;24.98;;
57651;SDS011;43480;53.116;6.734;2024-01-11T09:55:00;42.80;;;23.92;;
57651;SDS011;43480;53.116;6.734;2024-01-11T09:57:28;41.25;;;23.15;;
57651;SDS011;43480;53.116;6.734;2024-01-11T09:59:56;39.58;;;23.13;;
57651;SDS011;43480;53.116;6.734;2024-01-11T10:02:22;40.45;;;22.13;;
57651;SDS011;43480;53.116;6.734;2024-01-11T10:04:49;40.88;;;21.67;;
57651;SDS011;43480;53.116;6.734;2024-01-11T10:07:17;38.75;;;21.33;;
57651;SDS011;43480;53.116;6.734;2024-01-11T10:09:46;42.97;;;22.65;;
57651;SDS011;43480;53.116;6.734;2024-01-11T10:12:12;39.63;;;23.30;;
57651;SDS011;43480;53.116;6.734;2024-01-11T10:14:38;39.90;;;22.70;;
57651;SDS011;43480;53.116;6.734;2024-01-11T10:17:06;37.42;;;20.83;;
57651;SDS011;43480;53.116;6.734;2024-01-11T10:19:32;41.80;;;21.27;;
57651;SDS011;43480;53.116;6.734;2024-01-11T10:21:58;40.10;;;23.60;;
57651;SDS011;43480;53.116;6.734;2024-01-11T10:24:23;38.65;;;22.85;;
57651;SDS011;43480;53.116;6.734;2024-01-11T10:26:51;38.30;;;21.17;;
57651;SDS011;43480;53.116;6.734;2024-01-11T10:29:21;42.90;;;23.23;;
57651;SDS011;43480;53.116;6.734;2024-01-11T10:31:46;40.50;;;22.30;;
57651;SDS011;43480;53.116;6.734;2024-01-11T10:34:12;42.25;;;22.25;;
57651;SDS011;43480;53.116;6.734;2024-01-11T10:36:38;39.78;;;21.95;;
57651;SDS011;43480;53.116;6.734;2024-01-11T10:39:05;43.22;;;22.35;;
57651;SDS011;43480;53.116;6.734;2024-01-11T10:41:38;37.55;;;20.85;;
57651;SDS011;43480;53.116;6.734;2024-01-11T10:44:14;41.97;;;22.23;;
57651;SDS011;43480;53.116;6.734;2024-01-11T10:46:49;37.83;;;22.02;;
57651;SDS011;43480;53.116;6.734;2024-01-11T10:49:16;39.65;;;23.40;;
57651;SDS011;43480;53.116;6.734;2024-01-11T10:51:53;40.90;;;21.50;;
57651;SDS011;43480;53.116;6.734;2024-01-11T10:54:28;38.40;;;22.40;;
57651;SDS011;43480;53.116;6.734;2024-01-11T10:56:56;39.80;;;22.73;;
57651;SDS011;43480;53.116;6.734;2024-01-11T10:59:24;40.08;;;22.60;;
57651;SDS011;43480;53.116;6.734;2024-01-11T11:01:54;38.00;;;22.20;;
57651;SDS011;43480;53.116;6.734;2024-01-11T11:04:23;41.47;;;22.75;;
57651;SDS011;43480;53.116;6.734;2024-01-11T11:06:54;39.53;;;22.85;;
57651;SDS011;43480;53.116;6.734;2024-01-11T11:09:24;36.50;;;21.58;;
57651;SDS011;43480;53.116;6.734;2024-01-11T11:11:50;39.60;;;21.30;;
57651;SDS011;43480;53.116;6.734;2024-01-11T11:14:21;44.38;;;24.08;;
57651;SDS011;43480;53.116;6.734;2024-01-11T11:16:47;36.42;;;21.17;;
57651;SDS011;43480;53.116;6.734;2024-01-11T11:19:14;38.83;;;22.95;;
57651;SDS011;43480;53.116;6.734;2024-01-11T11:21:43;37.65;;;23.15;;
57651;SDS011;43480;53.116;6.734;2024-01-11T11:24:10;46.40;;;24.98;;
57651;SDS011;43480;53.116;6.734;2024-01-11T11:26:36;41.78;;;23.85;;
57651;SDS011;43480;53.116;6.734;2024-01-11T11:29:05;39.80;;;24.08;;
57651;SDS011;43480;53.116;6.734;2024-01-11T11:31:34;41.35;;;27.20;;
57651;SDS011;43480;53.116;6.734;2024-01-11T11:34:06;43.53;;;27.55;;
57651;SDS011;43480;53.116;6.734;2024-01-11T11:36:33;47.60;;;29.48;;
57651;SDS011;43480;53.116;6.734;2024-01-11T11:38:59;45.70;;;25.75;;
57651;SDS011;43480;53.116;6.734;2024-01-11T11:41:26;43.42;;;25.45;;
57651;SDS011;43480;53.116;6.734;2024-01-11T11:43:52;40.90;;;23.75;;
57651;SDS011;43480;53.116;6.734;2024-01-11T11:46:18;40.45;;;24.30;;
57651;SDS011;43480;53.116;6.734;2024-01-11T11:51:18;38.53;;;21.30;;
57651;SDS011;43480;53.116;6.734;2024-01-11T11:53:45;40.50;;;22.58;;
57651;SDS011;43480;53.116;6.734;2024-01-11T11:56:13;36.20;;;21.38;;
57651;SDS011;43480;53.116;6.734;2024-01-11T11:58:42;41.22;;;22.30;;
57651;SDS011;43480;53.116;6.734;2024-01-11T12:01:09;38.20;;;21.67;;
57651;SDS011;43480;53.116;6.734;2024-01-11T12:03:38;35.35;;;21.15;;
57651;SDS011;43480;53.116;6.734;2024-01-11T12:06:06;43.22;;;24.15;;
57651;SDS011;43480;53.116;6.734;2024-01-11T12:08:36;50.78;;;29.55;;
57651;SDS011;43480;53.116;6.734;2024-01-11T12:11:03;41.88;;;23.13;;
57651;SDS011;43480;53.116;6.734;2024-01-11T12:13:29;38.45;;;21.98;;
57651;SDS011;43480;53.116;6.734;2024-01-11T12:15:58;40.60;;;22.05;;
57651;SDS011;43480;53.116;6.734;2024-01-11T12:18:23;39.63;;;21.60;;
57651;SDS011;43480;53.116;6.734;2024-01-11T12:20:49;40.38;;;23.17;;
57651;SDS011;43480;53.116;6.734;2024-01-11T12:23:18;38.13;;;21.63;;
57651;SDS011;43480;53.116;6.734;2024-01-11T12:25:44;40.58;;;23.00;;
57651;SDS011;43480;53.116;6.734;2024-01-11T12:28:10;38.35;;;21.80;;
57651;SDS011;43480;53.116;6.734;2024-01-11T12:30:36;45.10;;;23.02;;
57651;SDS011;43480;53.116;6.734;2024-01-11T12:33:03;44.90;;;25.65;;
57651;SDS011;43480;53.116;6.734;2024-01-11T12:35:30;44.28;;;25.98;;
57651;SDS011;43480;53.116;6.734;2024-01-11T12:38:00;40.78;;;23.35;;
57651;SDS011;43480;53.116;6.734;2024-01-11T12:40:36;43.33;;;24.55;;
57651;SDS011;43480;53.116;6.734;2024-01-11T12:43:05;41.33;;;22.88;;
57651;SDS011;43480;53.116;6.734;2024-01-11T12:45:35;41.88;;;25.55;;
57651;SDS011;43480;53.116;6.734;2024-01-11T12:48:01;45.55;;;23.58;;
57651;SDS011;43480;53.116;6.734;2024-01-11T12:50:28;45.40;;;23.90;;
57651;SDS011;43480;53.116;6.734;2024-01-11T12:53:05;41.10;;;23.23;;
57651;SDS011;43480;53.116;6.734;2024-01-11T12:55:49;40.75;;;22.77;;
57651;SDS011;43480;53.116;6.734;2024-01-11T12:58:35;37.45;;;21.25;;
57651;SDS011;43480;53.116;6.734;2024-01-11T13:01:03;41.60;;;22.77;;
57651;SDS011;43480;53.116;6.734;2024-01-11T13:03:29;42.13;;;24.98;;
57651;SDS011;43480;53.116;6.734;2024-01-11T13:05:56;45.42;;;23.65;;
57651;SDS011;43480;53.116;6.734;2024-01-11T13:08:22;40.03;;;23.73;;
57651;SDS011;43480;53.116;6.734;2024-01-11T13:10:48;41.30;;;21.30;;
57651;SDS011;43480;53.116;6.734;2024-01-11T13:13:14;41.88;;;23.55;;
57651;SDS011;43480;53.116;6.734;2024-01-11T13:15:40;43.80;;;22.42;;
57651;SDS011;43480;53.116;6.734;2024-01-11T13:18:06;41.97;;;21.98;;
57651;SDS011;43480;53.116;6.734;2024-01-11T13:20:31;44.88;;;24.40;;
57651;SDS011;43480;53.116;6.734;2024-01-11T13:25:44;42.85;;;22.95;;
57651;SDS011;43480;53.116;6.734;2024-01-11T13:28:10;39.80;;;22.35;;
57651;SDS011;43480;53.116;6.734;2024-01-11T13:30:37;43.50;;;23.20;;
57651;SDS011;43480;53.116;6.734;2024-01-11T13:33:04;41.08;;;24.15;;
57651;SDS011;43480;53.116;6.734;2024-01-11T13:35:30;45.40;;;23.65;;
57651;SDS011;43480;53.116;6.734;2024-01-11T13:37:56;46.58;;;24.70;;
57651;SDS011;43480;53.116;6.734;2024-01-11T13:40:22;41.33;;;23.50;;
57651;SDS011;43480;53.116;6.734;2024-01-11T13:42:48;41.10;;;23.58;;
57651;SDS011;43480;53.116;6.734;2024-01-11T13:45:14;41.03;;;22.08;;
57651;SDS011;43480;53.116;6.734;2024-01-11T13:47:40;42.67;;;23.42;;
57651;SDS011;43480;53.116;6.734;2024-01-11T13:50:05;40.33;;;22.52;;
57651;SDS011;43480;53.116;6.734;2024-01-11T13:52:32;44.92;;;24.23;;
57651;SDS011;43480;53.116;6.734;2024-01-11T13:54:58;44.13;;;23.52;;
57651;SDS011;43480;53.116;6.734;2024-01-11T13:57:25;51.65;;;24.27;;
57651;SDS011;43480;53.116;6.734;2024-01-11T13:59:51;42.47;;;24.40;;
57651;SDS011;43480;53.116;6.734;2024-01-11T14:02:16;49.95;;;26.67;;
57651;SDS011;43480;53.116;6.734;2024-01-11T14:04:42;47.60;;;23.83;;
57651;SDS011;43480;53.116;6.734;2024-01-11T14:07:08;46.40;;;25.30;;
57651;SDS011;43480;53.116;6.734;2024-01-11T14:09:34;50.85;;;26.50;;
57651;SDS011;43480;53.116;6.734;2024-01-11T14:11:59;43.85;;;23.83;;
57651;SDS011;43480;53.116;6.734;2024-01-11T14:14:25;50.85;;;24.17;;
57651;SDS011;43480;53.116;6.734;2024-01-11T14:16:50;49.08;;;26.10;;
57651;SDS011;43480;53.116;6.734;2024-01-11T14:19:16;48.58;;;25.70;;
57651;SDS011;43480;53.116;6.734;2024-01-11T14:21:42;42.03;;;23.38;;
57651;SDS011;43480;53.116;6.734;2024-01-11T14:24:08;47.38;;;25.60;;